createdAt,value
2022-09-07T04:14:37.180Z,9.366000
2022-09-07T04:15:36.132Z,9.366019
2022-09-07T04:16:36.258Z,9.366082
2022-09-07T04:17:36.050Z,9.366058
2022-09-07T04:18:35.958Z,9.366234
2022-09-07T04:19:35.848Z,9.366113
2022-09-07T04:20:35.882Z,9.366110
2022-09-07T04:21:35.884Z,9.366068
2022-09-07T04:22:35.865Z,9.366070
2022-09-07T04:23:35.806Z,9.365988
2022-09-07T04:24:35.820Z,9.366141
2022-09-07T04:25:35.815Z,9.366350
2022-09-07T04:26:35.809Z,9.366259
2022-09-07T04:27:35.797Z,9.366067
2022-09-07T04:28:35.817Z,9.365988
2022-09-07T04:29:35.762Z,9.365957
2022-09-07T04:30:35.799Z,9.365959
2022-09-07T04:31:35.780Z,9.365978
2022-09-07T04:32:35.779Z,9.365999
2022-09-07T04:33:35.822Z,9.366080
2022-09-07T04:34:35.786Z,9.365990
2022-09-07T04:35:35.944Z,9.365958
2022-09-07T04:36:35.719Z,9.365845
2022-09-07T04:37:35.831Z,9.365962
2022-09-07T04:38:35.692Z,9.365959
2022-09-07T04:39:35.679Z,9.366047
2022-09-07T04:40:35.646Z,9.365971
2022-09-07T04:41:35.632Z,9.365991
2022-09-07T04:42:35.636Z,9.365938
2022-09-07T04:43:35.667Z,9.365944
2022-09-07T04:44:36.581Z,9.365911
2022-09-07T05:37:57.489Z,9.367318
2022-09-07T05:38:57.653Z,9.367343
2022-09-07T05:39:57.530Z,9.367343
2022-09-07T05:40:57.508Z,9.367279
2022-09-07T05:41:57.444Z,9.367279
2022-09-07T05:42:57.453Z,9.367210
2022-09-07T05:44:57.437Z,9.367519
2022-09-07T05:45:57.507Z,9.367195
2022-09-07T05:46:57.398Z,9.367082
2022-09-07T05:47:57.373Z,9.367077
2022-09-07T05:48:57.365Z,9.367057
2022-09-07T05:49:57.392Z,9.366904
2022-09-07T05:50:57.414Z,9.367304
2022-09-07T05:51:57.339Z,9.367137
2022-09-07T05:52:57.307Z,9.366730
2022-09-07T05:53:57.335Z,9.366700
2022-09-07T05:55:13.065Z,9.366770
2022-09-07T05:55:57.279Z,9.366633
2022-09-07T05:56:57.314Z,9.366396
2022-09-07T05:57:57.273Z,9.366294
2022-09-07T05:58:57.247Z,9.366488
2022-09-07T05:59:57.275Z,9.366478
2022-09-07T06:00:57.220Z,9.366163
2022-09-07T06:01:57.317Z,9.366124
2022-09-07T06:02:57.386Z,9.366103
2022-09-07T06:03:57.252Z,9.366080
2022-09-07T06:04:57.213Z,9.366158
2022-09-07T06:05:57.200Z,9.366112
2022-09-07T06:07:58.156Z,9.366109
2022-09-07T06:08:57.146Z,9.366103
2022-09-07T06:10:57.134Z,9.366204
2022-09-07T06:11:58.138Z,9.366148
2022-09-07T06:12:57.096Z,9.366095
2022-09-07T06:13:57.063Z,9.366111
2022-09-07T06:14:57.085Z,9.366001
2022-09-07T06:15:57.076Z,9.365927
2022-09-07T06:16:57.119Z,9.365903
2022-09-07T06:17:57.056Z,9.365903
2022-09-07T06:18:57.029Z,9.365972
2022-09-07T06:19:57.058Z,9.365912
2022-09-07T06:20:57.001Z,9.365942
2022-09-07T06:21:57.008Z,9.366044
2022-09-07T06:22:57.029Z,9.366014
2022-09-07T06:23:56.961Z,9.366000
2022-09-07T06:24:56.960Z,9.365936
2022-09-07T06:25:56.954Z,9.365934
2022-09-07T06:26:56.964Z,9.365973
2022-09-07T06:27:56.968Z,9.365921
2022-09-07T06:28:58.021Z,9.365926
2022-09-07T06:29:56.906Z,9.366015
2022-09-07T06:30:56.909Z,9.366055
2022-09-07T06:32:56.879Z,9.366062
2022-09-07T06:33:56.915Z,9.365962
2022-09-07T06:34:56.857Z,9.365975
2022-09-07T06:35:56.874Z,9.366017
2022-09-07T06:36:56.876Z,9.365988
2022-09-07T06:37:56.810Z,9.365991
2022-09-07T06:38:56.812Z,9.365985
2022-09-07T06:39:56.870Z,9.365967
2022-09-07T06:41:58.949Z,9.365990
2022-09-07T06:42:56.753Z,9.365977
2022-09-07T06:43:56.747Z,9.366002
2022-09-07T06:44:56.749Z,9.366064
2022-09-07T06:45:56.807Z,9.366060
2022-09-07T06:47:04.456Z,9.366060
2022-09-07T06:47:58.720Z,9.366065
2022-09-07T06:48:56.679Z,9.366002
2022-09-07T06:49:56.758Z,9.365996
2022-09-07T06:50:56.667Z,9.366016
2022-09-07T06:51:56.673Z,9.366081
2022-09-07T06:55:56.615Z,9.366004
2022-09-07T06:56:56.614Z,9.365981
2022-09-07T06:57:56.644Z,9.366013
2022-09-07T06:58:56.583Z,9.365931
2022-09-07T06:59:56.551Z,9.365945
2022-09-07T07:00:56.610Z,9.365977
2022-09-07T07:01:56.531Z,9.365933
2022-09-07T07:02:56.575Z,9.365895
2022-09-07T07:03:56.546Z,9.366091
2022-09-07T07:04:56.517Z,9.366068
2022-09-07T07:05:56.488Z,9.366048
2022-09-07T07:06:56.495Z,9.365975
2022-09-07T07:07:56.494Z,9.365982
2022-09-07T07:08:56.443Z,9.365961
2022-09-07T07:09:56.436Z,9.366059
2022-09-07T07:10:56.415Z,9.366018
2022-09-07T07:11:56.437Z,9.366174
2022-09-07T07:12:56.435Z,9.366085
2022-09-07T07:13:56.538Z,9.366051
2022-09-07T07:14:56.368Z,9.365872
2022-09-07T07:15:56.400Z,9.365820
2022-09-07T07:16:56.393Z,9.365960
2022-09-07T07:18:05.140Z,9.366058
2022-09-07T07:18:57.354Z,9.366083
2022-09-07T07:19:56.314Z,9.365969
2022-09-07T07:20:56.308Z,9.365947
2022-09-07T07:22:57.300Z,9.366009
2022-09-07T07:23:56.261Z,9.366135
2022-09-07T07:24:56.274Z,9.365962
2022-09-07T07:25:56.241Z,9.365917
2022-09-07T07:26:56.239Z,9.365881
2022-09-07T07:27:56.894Z,9.365827
2022-09-07T07:29:57.243Z,9.365972
2022-09-07T07:30:56.208Z,9.366090
2022-09-07T07:31:56.180Z,9.365982
2022-09-07T07:32:56.228Z,9.365963
2022-09-07T07:33:56.254Z,9.365997
2022-09-07T07:34:56.196Z,9.366085
2022-09-07T07:35:56.200Z,9.366319
2022-09-07T07:36:56.343Z,9.366390
2022-09-07T07:41:58.624Z,9.366075
2022-09-07T07:42:56.098Z,9.366075
2022-09-07T07:43:56.036Z,9.365932
2022-09-07T07:45:56.099Z,9.365881
2022-09-07T07:46:56.019Z,9.366282
2022-09-07T07:47:55.989Z,9.365963
2022-09-07T07:48:55.997Z,9.365953
2022-09-07T07:50:30.856Z,9.365933
2022-09-07T07:50:56.966Z,9.365847
2022-09-07T07:53:56.234Z,9.365996
2022-09-07T07:54:55.916Z,9.365968
2022-09-07T07:55:55.928Z,9.366014
2022-09-07T07:56:55.910Z,9.365880
2022-09-07T07:57:55.898Z,9.365895
2022-09-07T07:58:55.922Z,9.365827
2022-09-07T07:59:55.855Z,9.365926
2022-09-07T08:00:56.666Z,9.365930
2022-09-07T08:01:55.927Z,9.365960
2022-09-07T08:02:55.873Z,9.365982
2022-09-07T08:03:55.833Z,9.365985
2022-09-07T08:04:55.804Z,9.365918
2022-09-07T08:05:55.786Z,9.365947
2022-09-07T08:06:55.781Z,9.365956
2022-09-07T08:07:55.804Z,9.365908
2022-09-07T08:08:55.781Z,9.366087
2022-09-07T08:09:55.788Z,9.366011
2022-09-07T08:10:55.770Z,9.365971
2022-09-07T08:11:55.742Z,9.365992
2022-09-07T08:12:55.748Z,9.365954
2022-09-07T08:13:55.744Z,9.365959
2022-09-07T08:14:55.727Z,9.366022
2022-09-07T08:15:55.715Z,9.365994
2022-09-07T08:16:55.676Z,9.365996
2022-09-07T08:17:55.681Z,9.365967
2022-09-07T08:18:55.771Z,9.365994
2022-09-07T08:19:55.659Z,9.365955
2022-09-07T08:20:56.064Z,9.366005
2022-09-07T08:21:55.635Z,9.365977
2022-09-07T08:22:55.594Z,9.365999
2022-09-07T08:23:56.651Z,9.366014
2022-09-07T08:24:55.588Z,9.366019
2022-09-07T08:25:55.568Z,9.365982
2022-09-07T08:26:55.592Z,9.366158
2022-09-07T08:27:55.542Z,9.366228
2022-09-07T08:28:55.535Z,9.366048
2022-09-07T08:29:55.556Z,9.366005
2022-09-07T08:30:55.532Z,9.366003
2022-09-07T08:31:55.525Z,9.365997
2022-09-07T08:32:55.675Z,9.365991
2022-09-07T08:33:55.575Z,9.366007
2022-09-07T08:34:55.483Z,9.365931
2022-09-07T08:35:55.466Z,9.365928
2022-09-07T08:36:55.470Z,9.365963
2022-09-07T08:37:55.447Z,9.365920
2022-09-07T08:38:55.442Z,9.366096
2022-09-07T08:39:55.486Z,9.365928
2022-09-07T08:40:55.412Z,9.365911
2022-09-07T08:41:55.419Z,9.365838
2022-09-07T08:42:55.402Z,9.365807
2022-09-07T08:43:55.403Z,9.366075
2022-09-07T08:44:55.377Z,9.366129
2022-09-07T08:45:55.344Z,9.366133
2022-09-07T08:46:55.406Z,9.366030
2022-09-07T08:47:55.304Z,9.365966
2022-09-07T08:48:55.320Z,9.366024
2022-09-07T08:49:55.304Z,9.365969
2022-09-07T08:50:55.280Z,9.365951
2022-09-07T08:51:55.297Z,9.365935
2022-09-07T08:52:55.254Z,9.365979
2022-09-07T08:53:55.261Z,9.366035
2022-09-07T08:54:55.257Z,9.366097
2022-09-07T08:55:55.223Z,9.366028
2022-09-07T08:57:55.196Z,9.366021
2022-09-07T08:58:55.217Z,9.365924
2022-09-07T08:59:55.194Z,9.365942
2022-09-07T09:01:30.638Z,9.365949
2022-09-07T09:05:55.232Z,9.366117
2022-09-07T09:06:55.179Z,9.366051
2022-09-07T09:07:55.098Z,9.365954
2022-09-07T09:08:55.055Z,9.365966
2022-09-07T09:09:55.083Z,9.366124
2022-09-07T09:10:55.030Z,9.366053
2022-09-07T09:11:55.208Z,9.366056
2022-09-07T09:12:55.037Z,9.366084
2022-09-07T09:13:54.995Z,9.366037
2022-09-07T09:14:55.026Z,9.365919
2022-09-07T09:15:54.996Z,9.365961
2022-09-07T09:16:55.011Z,9.365957
2022-09-07T09:17:54.985Z,9.365979
2022-09-07T09:18:54.948Z,9.365932
2022-09-07T09:19:54.997Z,9.365912
2022-09-07T09:20:54.924Z,9.366046
2022-09-07T09:21:54.937Z,9.366120
2022-09-07T09:22:54.935Z,9.366165
2022-09-07T09:23:54.874Z,9.365977
2022-09-07T09:24:54.894Z,9.365909
2022-09-07T09:25:54.870Z,9.365910
2022-09-07T09:26:54.878Z,9.365705
2022-09-07T09:27:54.823Z,9.365984
2022-09-07T09:28:54.851Z,9.366041
2022-09-07T09:29:54.824Z,9.366069
2022-09-07T09:30:54.904Z,9.366070
2022-09-07T09:31:54.805Z,9.366018
2022-09-07T09:32:54.777Z,9.365994
2022-09-07T09:33:54.774Z,9.366123
2022-09-07T09:34:54.769Z,9.366159
2022-09-07T09:35:54.759Z,9.366011
2022-09-07T09:36:54.739Z,9.365973
2022-09-07T09:37:55.728Z,9.365994
2022-09-07T09:38:54.692Z,9.366113
2022-09-07T09:39:56.209Z,9.366065
2022-09-07T09:40:54.761Z,9.366020
2022-09-07T09:41:54.712Z,9.365978
2022-09-07T09:42:54.669Z,9.365936
2022-09-07T09:43:54.668Z,9.365969
2022-09-07T09:44:54.622Z,9.365981
2022-09-07T09:47:54.895Z,9.366044
2022-09-07T09:48:54.605Z,9.365953
2022-09-07T09:49:54.612Z,9.365864
2022-09-07T09:52:54.546Z,9.365929
2022-09-07T09:53:54.556Z,9.365808
2022-09-07T09:54:55.840Z,9.365897
2022-09-07T09:55:54.503Z,9.365899
2022-09-07T09:56:54.507Z,9.365939
2022-09-07T09:59:58.367Z,9.366068
2022-09-07T10:03:58.187Z,9.366034
2022-09-07T10:04:54.724Z,9.366087
2022-09-07T10:05:54.412Z,9.366240
2022-09-07T10:06:54.417Z,9.366300
2022-09-07T10:07:54.371Z,9.366366
2022-09-07T10:08:54.366Z,9.366387
2022-09-07T10:09:54.352Z,9.366303
2022-09-07T10:10:54.326Z,9.366265
2022-09-07T10:12:09.570Z,9.366159
2022-09-07T10:12:56.346Z,9.366183
2022-09-07T10:13:54.306Z,9.366236
2022-09-07T10:14:54.274Z,9.366168
2022-09-07T10:15:54.366Z,9.366066
2022-09-07T10:16:55.677Z,9.366113
2022-09-07T10:17:54.257Z,9.366128
2022-09-07T10:18:54.244Z,9.365976
2022-09-07T10:19:54.245Z,9.365887
2022-09-07T10:20:54.256Z,9.365972
2022-09-07T10:21:54.277Z,9.365946
2022-09-07T10:22:54.201Z,9.366028
2022-09-07T10:23:54.193Z,9.366166
2022-09-07T10:24:54.174Z,9.366460
2022-09-07T10:25:54.195Z,9.366219
2022-09-07T10:26:54.144Z,9.366418
2022-09-07T10:27:54.159Z,9.366238
2022-09-07T10:29:10.085Z,9.366052
2022-09-07T10:29:56.127Z,9.366075
2022-09-07T10:30:54.179Z,9.366123
2022-09-07T10:31:54.083Z,9.366238
2022-09-07T10:32:55.116Z,9.366272
2022-09-07T10:34:54.077Z,9.366055
2022-09-07T10:35:54.060Z,9.366191
2022-09-07T10:36:54.057Z,9.366138
2022-09-07T10:37:54.122Z,9.366138
2022-09-07T10:38:54.024Z,9.365900
2022-09-07T10:39:56.965Z,9.366119
2022-09-07T10:40:55.005Z,9.366036
2022-09-07T10:41:53.989Z,9.366246
2022-09-07T10:43:54.982Z,9.366246
2022-09-07T10:44:53.973Z,9.366277
2022-09-07T10:45:53.989Z,9.366446
2022-09-07T10:46:57.463Z,9.366469
2022-09-07T10:47:54.975Z,9.366293
2022-09-07T10:48:54.031Z,9.366458
2022-09-07T10:50:53.974Z,9.365938
2022-09-07T10:51:53.922Z,9.365868
2022-09-07T10:52:53.991Z,9.365879
2022-09-07T10:54:53.848Z,9.365985
2022-09-07T10:55:54.014Z,9.365954
2022-09-07T10:56:53.866Z,9.366089
2022-09-07T10:57:54.046Z,9.365825
2022-09-07T10:59:09.151Z,9.365880
2022-09-07T11:00:11.325Z,9.365934
2022-09-07T11:00:55.912Z,9.365986
2022-09-07T11:01:53.864Z,9.366014
2022-09-07T11:03:53.825Z,9.366043
2022-09-07T11:04:53.802Z,9.365943
2022-09-07T11:05:53.745Z,9.365959
2022-09-07T11:06:53.716Z,9.365905
2022-09-07T11:07:53.695Z,9.366014
2022-09-07T11:09:54.909Z,9.366004
2022-09-07T11:10:53.680Z,9.366070
2022-09-07T11:12:01.461Z,9.366009
2022-09-07T11:12:55.654Z,9.366058
2022-09-07T11:14:12.163Z,9.366003
2022-09-07T11:14:54.627Z,9.366148
2022-09-07T11:15:53.653Z,9.366051
2022-09-07T11:16:53.685Z,9.366009
2022-09-07T11:17:53.618Z,9.366012
2022-09-07T11:19:35.022Z,9.366137
2022-09-07T11:19:53.601Z,9.365981
2022-09-07T11:20:53.544Z,9.366025
2022-09-07T11:21:56.846Z,9.365929
2022-09-07T11:22:54.540Z,9.365943
2022-09-07T11:23:53.535Z,9.365972
2022-09-07T11:25:53.526Z,9.366035
2022-09-07T11:26:53.505Z,9.365959
2022-09-07T11:27:53.520Z,9.365954
2022-09-07T11:29:53.485Z,9.366027
2022-09-07T11:30:57.846Z,9.366013
2022-09-07T11:31:54.464Z,9.365946
2022-09-07T11:32:53.469Z,9.365932
2022-09-07T11:34:54.493Z,9.365987
2022-09-07T11:35:54.419Z,9.365961
2022-09-07T11:36:53.403Z,9.365909
2022-09-07T11:37:53.379Z,9.365972
2022-09-07T11:38:53.367Z,9.365895
2022-09-07T11:39:53.391Z,9.365937
2022-09-07T11:40:53.373Z,9.366056
2022-09-07T11:41:53.341Z,9.366077
2022-09-07T11:42:53.366Z,9.365939
2022-09-07T11:43:53.312Z,9.366080
2022-09-07T11:44:53.327Z,9.366027
2022-09-07T11:45:53.290Z,9.365970
2022-09-07T11:46:53.309Z,9.366094
2022-09-07T11:47:53.275Z,9.366115
2022-09-07T11:48:53.277Z,9.365974
2022-09-07T11:49:57.202Z,9.365980
2022-09-07T11:50:54.256Z,9.366171
2022-09-07T11:51:54.233Z,9.366013
2022-09-07T11:52:54.206Z,9.366003
2022-09-07T11:53:54.211Z,9.365915
2022-09-07T11:54:53.194Z,9.365921
2022-09-07T11:55:53.193Z,9.365903
2022-09-07T11:56:53.185Z,9.366007
2022-09-07T11:57:55.647Z,9.366017
2022-09-07T11:58:54.159Z,9.365967
2022-09-07T11:59:53.140Z,9.366024
2022-09-07T12:00:53.146Z,9.366144
2022-09-07T12:01:53.116Z,9.366241
2022-09-07T12:02:59.997Z,9.366163
2022-09-07T12:03:55.211Z,9.366292
2022-09-07T12:04:56.388Z,9.366525
2022-09-07T12:05:53.162Z,9.366067
2022-09-07T12:06:53.093Z,9.365963
2022-09-07T12:07:53.044Z,9.365971
2022-09-07T12:08:53.043Z,9.366106
2022-09-07T12:09:53.029Z,9.365903
2022-09-07T12:10:53.071Z,9.366002
2022-09-07T12:11:53.030Z,9.365872
2022-09-07T12:12:52.993Z,9.365882
2022-09-07T12:13:53.050Z,9.366017
2022-09-07T12:14:52.996Z,9.365952
2022-09-07T12:15:53.051Z,9.365971
2022-09-07T12:16:53.024Z,9.365957
2022-09-07T12:17:53.036Z,9.366044
2022-09-07T12:18:52.960Z,9.366008
2022-09-07T12:19:52.988Z,9.366139
2022-09-07T12:20:52.939Z,9.366081
2022-09-07T12:21:52.960Z,9.365975
2022-09-07T12:22:52.959Z,9.366046
2022-09-07T12:23:52.920Z,9.366044
2022-09-07T12:24:53.024Z,9.365994
2022-09-07T12:25:52.921Z,9.366018
2022-09-07T12:26:52.867Z,9.366057
2022-09-07T12:27:52.840Z,9.365976
2022-09-07T12:28:52.844Z,9.365982
2022-09-07T12:29:52.909Z,9.366287
2022-09-07T12:30:52.848Z,9.366090
2022-09-07T12:32:52.382Z,9.366129
2022-09-07T12:32:56.142Z,9.365994
2022-09-07T12:33:52.776Z,9.365971
2022-09-07T12:34:52.788Z,9.366036
2022-09-07T12:35:52.771Z,9.365981
2022-09-07T12:36:52.766Z,9.366032
2022-09-07T12:37:52.771Z,9.366003
2022-09-07T12:38:52.718Z,9.366025
2022-09-07T12:39:52.767Z,9.365995
2022-09-07T12:40:52.718Z,9.366010
2022-09-07T12:42:31.896Z,9.366007
2022-09-07T12:42:54.486Z,9.365963
2022-09-07T12:43:52.671Z,9.365994
2022-09-07T12:44:52.630Z,9.365989
2022-09-07T12:45:52.778Z,9.365965
2022-09-07T12:46:52.618Z,9.365948
2022-09-07T12:47:52.633Z,9.365981
2022-09-07T12:48:52.626Z,9.365996
2022-09-07T12:49:52.594Z,9.365996
2022-09-07T12:50:52.736Z,9.366010
2022-09-07T12:52:05.019Z,9.365988
2022-09-07T12:52:54.603Z,9.365993
2022-09-07T12:53:57.462Z,9.365944
2022-09-07T12:55:16.307Z,9.365994
2022-09-07T12:57:52.577Z,9.366020
2022-09-07T12:58:52.589Z,9.365968
2022-09-07T12:59:52.493Z,9.365968
2022-09-07T13:00:52.512Z,9.365982
2022-09-07T13:01:52.544Z,9.365937
2022-09-07T13:02:52.579Z,9.366005
2022-09-07T13:03:52.562Z,9.365952
2022-09-07T13:04:52.850Z,9.366020
2022-09-07T13:05:52.449Z,9.366043
2022-09-07T13:07:07.858Z,9.366003
2022-09-07T13:07:59.341Z,9.366013
2022-09-07T13:08:52.425Z,9.366034
2022-09-07T13:09:52.398Z,9.366063
2022-09-07T13:10:52.352Z,9.366070
2022-09-07T13:11:52.350Z,9.366046
2022-09-07T13:12:53.803Z,9.366028
2022-09-07T13:14:09.670Z,9.366026
2022-09-07T13:14:54.327Z,9.365956
2022-09-07T13:15:52.329Z,9.366019
2022-09-07T13:17:52.289Z,9.366126
2022-09-07T13:18:52.529Z,9.366195
2022-09-07T13:19:52.276Z,9.365961
2022-09-07T13:20:53.642Z,9.366033
2022-09-07T13:21:52.249Z,9.365982
2022-09-07T13:22:52.241Z,9.366004
2022-09-07T13:23:53.186Z,9.366016
2022-09-07T13:24:52.273Z,9.365937
2022-09-07T13:25:52.209Z,9.365974
2022-09-07T13:26:52.179Z,9.365859
2022-09-07T13:27:52.176Z,9.365975
2022-09-07T13:28:52.195Z,9.365961
2022-09-07T13:29:52.170Z,9.365986
2022-09-07T13:30:52.186Z,9.365991
2022-09-07T13:31:52.935Z,9.365974
2022-09-07T13:33:08.344Z,9.365969
2022-09-07T13:33:53.144Z,9.365978
2022-09-07T13:34:52.093Z,9.365943
2022-09-07T13:35:52.093Z,9.365975
2022-09-07T13:36:53.079Z,9.366100
2022-09-07T13:37:52.072Z,9.366073
2022-09-07T13:38:52.083Z,9.365973
2022-09-07T13:39:52.104Z,9.366022
2022-09-07T13:40:52.098Z,9.365999
2022-09-07T13:41:52.046Z,9.365978
2022-09-07T13:42:52.009Z,9.366039
2022-09-07T13:43:52.055Z,9.366014
2022-09-07T13:44:52.003Z,9.365972
2022-09-07T13:45:52.023Z,9.366001
2022-09-07T13:46:51.996Z,9.365973
2022-09-07T13:47:51.957Z,9.365997
2022-09-07T13:48:51.979Z,9.366024
2022-09-07T13:49:55.699Z,9.366022
2022-09-07T13:50:51.942Z,9.365961
2022-09-07T13:51:51.944Z,9.365950
2022-09-07T13:52:51.915Z,9.365948
2022-09-07T13:53:51.898Z,9.366108
2022-09-07T13:54:51.919Z,9.365861
2022-09-07T13:55:51.899Z,9.366047
2022-09-07T13:56:51.858Z,9.366037
2022-09-07T13:57:51.885Z,9.365959
2022-09-07T13:58:51.872Z,9.366043
2022-09-07T13:59:51.879Z,9.366176
2022-09-07T14:00:51.893Z,9.366284
2022-09-07T14:01:51.945Z,9.366190
2022-09-07T14:02:55.952Z,9.365825
2022-09-07T14:03:51.799Z,9.365930
2022-09-07T14:04:51.817Z,9.365996
2022-09-07T14:05:52.781Z,9.366035
2022-09-07T14:06:51.778Z,9.366039
2022-09-07T14:07:51.741Z,9.366119
2022-09-07T14:08:51.755Z,9.366082
2022-09-07T14:09:51.712Z,9.366071
2022-09-07T14:10:51.748Z,9.366015
2022-09-07T14:11:51.708Z,9.365957
2022-09-07T14:12:51.687Z,9.365987
2022-09-07T14:13:51.677Z,9.365993
2022-09-07T14:14:51.681Z,9.366002
2022-09-07T14:15:51.673Z,9.366050
2022-09-07T14:16:51.705Z,9.366043
2022-09-07T14:17:51.636Z,9.366037
2022-09-07T14:18:51.619Z,9.366045
2022-09-07T14:19:51.619Z,9.365947
2022-09-07T14:20:51.658Z,9.366020
2022-09-07T14:21:51.584Z,9.366035
2022-09-07T14:22:53.524Z,9.366055
2022-09-07T14:23:52.592Z,9.366008
2022-09-07T14:24:51.582Z,9.365997
2022-09-07T14:26:52.561Z,9.366032
2022-09-07T14:27:51.557Z,9.366036
2022-09-07T14:28:51.523Z,9.365939
2022-09-07T14:29:51.492Z,9.365960
2022-09-07T14:30:51.601Z,9.365991
2022-09-07T14:31:51.496Z,9.366008
2022-09-07T14:32:52.469Z,9.366001
2022-09-07T14:33:51.457Z,9.366003
2022-09-07T14:34:51.456Z,9.365993
2022-09-07T14:35:51.457Z,9.366025
2022-09-07T14:36:51.457Z,9.366022
2022-09-07T14:37:51.429Z,9.365986
2022-09-07T14:39:06.736Z,9.366032
2022-09-07T14:39:53.430Z,9.366014
2022-09-07T14:40:51.699Z,9.366055
2022-09-07T14:41:51.418Z,9.366053
2022-09-07T14:42:51.366Z,9.366070
2022-09-07T14:43:51.341Z,9.366012
2022-09-07T14:44:51.342Z,9.365966
2022-09-07T14:45:51.373Z,9.365947
2022-09-07T14:46:56.384Z,9.365973
2022-09-07T14:47:52.282Z,9.366026
2022-09-07T14:48:51.295Z,9.365996
2022-09-07T14:49:51.278Z,9.365988
2022-09-07T14:51:10.989Z,9.365983
2022-09-07T14:51:51.281Z,9.365999
2022-09-07T14:53:51.223Z,9.365948
2022-09-07T14:54:51.238Z,9.365943
2022-09-07T14:55:51.228Z,9.365950
2022-09-07T14:56:51.205Z,9.366084
2022-09-07T14:57:51.208Z,9.366065
2022-09-07T14:58:51.189Z,9.366001
2022-09-07T14:59:51.158Z,9.365982
2022-09-07T15:01:51.207Z,9.366101
2022-09-07T15:02:51.160Z,9.365952
2022-09-07T15:03:51.159Z,9.366051
2022-09-07T15:04:51.105Z,9.365954
2022-09-07T15:05:51.115Z,9.365925
2022-09-07T15:07:06.342Z,9.365838
2022-09-07T15:07:53.113Z,9.365862
2022-09-07T15:08:51.090Z,9.365862
2022-09-07T15:09:51.088Z,9.365862
2022-09-07T15:11:51.055Z,9.365862
2022-09-07T15:12:51.063Z,9.365862
2022-09-07T15:13:52.061Z,9.365862
2022-09-07T15:14:51.031Z,9.365862
2022-09-07T15:15:51.008Z,9.365862
2022-09-07T15:17:42.567Z,9.365862
2022-09-07T15:17:51.082Z,9.365862
2022-09-07T15:18:51.000Z,9.365862
2022-09-07T15:19:50.983Z,9.365862
2022-09-07T15:20:50.954Z,9.365862
2022-09-07T15:21:50.923Z,9.365862
2022-09-07T15:22:50.963Z,9.366036
2022-09-07T15:23:50.968Z,9.365927
2022-09-07T15:24:50.898Z,9.366150
2022-09-07T15:25:51.979Z,9.366081
2022-09-07T15:27:06.210Z,9.366006
2022-09-07T15:27:52.899Z,9.366010
2022-09-07T15:29:51.864Z,9.365951
2022-09-07T15:31:40.559Z,9.366037
2022-09-07T15:32:02.389Z,9.365978
2022-09-07T15:32:51.898Z,9.365810
2022-09-07T15:33:50.861Z,9.365900
2022-09-07T15:34:50.811Z,9.365848
2022-09-07T15:35:51.026Z,9.365675
2022-09-07T15:36:50.813Z,9.365821
2022-09-07T15:38:59.369Z,9.366027
2022-09-07T15:39:00.511Z,9.365955
2022-09-07T15:39:53.070Z,9.366071
2022-09-07T15:41:18.200Z,9.365948
2022-09-07T15:41:53.024Z,9.366079
2022-09-07T15:43:19.575Z,9.366067
2022-09-07T15:43:52.836Z,9.365878
2022-09-07T15:44:50.750Z,9.365764
2022-09-07T15:45:51.283Z,9.365639
2022-09-07T15:47:52.315Z,9.365789
2022-09-07T15:48:50.756Z,9.365853
2022-09-07T15:49:51.787Z,9.365752
2022-09-07T15:50:51.749Z,9.366042
2022-09-07T15:52:06.467Z,9.365946
2022-09-07T15:52:52.651Z,9.365890
2022-09-07T15:54:50.624Z,9.365898
2022-09-07T15:55:50.741Z,9.365780
2022-09-07T15:57:59.356Z,9.365928
2022-09-07T15:58:50.596Z,9.365932
2022-09-07T15:59:50.571Z,9.365985
2022-09-07T16:01:51.259Z,9.366006
2022-09-07T16:01:52.224Z,9.366023
2022-09-07T16:03:08.172Z,9.365967
2022-09-07T16:03:52.679Z,9.366015
2022-09-07T16:04:50.660Z,9.365986
2022-09-07T16:05:53.106Z,9.366023
2022-09-07T16:06:50.456Z,9.366034
2022-09-07T16:08:51.746Z,9.366078
2022-09-07T16:09:52.471Z,9.365978
2022-09-07T16:10:54.104Z,9.365964
2022-09-07T16:11:51.705Z,9.365988
2022-09-07T16:13:10.879Z,9.365971
2022-09-07T16:13:53.168Z,9.365923
2022-09-07T16:14:56.443Z,9.365870
2022-09-07T16:15:51.372Z,9.365923
2022-09-07T16:17:53.943Z,9.366003
2022-09-07T16:18:50.360Z,9.366046
2022-09-07T16:19:50.333Z,9.365971
2022-09-07T16:20:52.761Z,9.365975
2022-09-07T16:21:50.302Z,9.365960
2022-09-07T16:23:50.246Z,9.365983
2022-09-07T16:24:50.305Z,9.365960
2022-09-07T16:25:50.227Z,9.365979
2022-09-07T16:26:50.344Z,9.366053
2022-09-07T16:27:50.220Z,9.366008
2022-09-07T16:28:50.220Z,9.366050
2022-09-07T16:29:50.242Z,9.366006
2022-09-07T16:30:50.182Z,9.366002
2022-09-07T16:32:50.253Z,9.366001
2022-09-07T16:33:50.147Z,9.365998
2022-09-07T16:34:50.119Z,9.366016
2022-09-07T16:35:50.147Z,9.366014
2022-09-07T16:36:50.108Z,9.365996
2022-09-07T16:38:51.143Z,9.365960
2022-09-07T16:39:50.145Z,9.365989
2022-09-07T16:40:50.196Z,9.365951
2022-09-07T16:41:50.047Z,9.365982
2022-09-07T16:42:50.045Z,9.366043
2022-09-07T16:43:50.027Z,9.365998
2022-09-07T16:44:50.316Z,9.366020
2022-09-07T16:46:05.319Z,9.365995
2022-09-07T16:46:51.997Z,9.366003
2022-09-07T16:47:49.991Z,9.366010
2022-09-07T16:48:50.011Z,9.366059
2022-09-07T16:49:50.663Z,9.366046
2022-09-07T16:50:50.003Z,9.365965
2022-09-07T16:51:50.264Z,9.366029
2022-09-07T16:52:49.916Z,9.365984
2022-09-07T16:53:49.915Z,9.365961
2022-09-07T16:54:51.236Z,9.365992
2022-09-07T16:55:49.911Z,9.366010
2022-09-07T16:56:49.887Z,9.365975
2022-09-07T16:58:50.341Z,9.366029
2022-09-07T16:59:49.900Z,9.366014
2022-09-07T17:00:49.834Z,9.366008
2022-09-07T17:01:49.840Z,9.366004
2022-09-07T17:02:49.804Z,9.365963
2022-09-07T17:03:49.879Z,9.365997
2022-09-07T17:04:49.795Z,9.365865
2022-09-07T17:05:49.767Z,9.366066
2022-09-07T17:06:49.775Z,9.366158
2022-09-07T17:07:49.779Z,9.366113
2022-09-07T17:08:49.745Z,9.366137
2022-09-07T17:09:49.769Z,9.366276
2022-09-07T17:10:49.753Z,9.365974
2022-09-07T17:11:49.752Z,9.366085
2022-09-07T17:12:49.687Z,9.366078
2022-09-07T17:13:49.701Z,9.366059
2022-09-07T17:14:49.687Z,9.366097
2022-09-07T17:15:49.664Z,9.366099
2022-09-07T17:16:49.764Z,9.366100
2022-09-07T17:17:49.632Z,9.365988
2022-09-07T17:19:49.686Z,9.366043
2022-09-07T17:20:49.603Z,9.366021
2022-09-07T18:08:37.491Z,9.365502
2022-09-07T18:09:37.496Z,9.365587
2022-09-07T18:11:46.192Z,9.365587
2022-09-07T18:12:39.497Z,9.366175
2022-09-07T18:13:37.482Z,9.366175
2022-09-07T18:14:37.429Z,9.366175
2022-09-07T18:15:37.432Z,9.364910
2022-09-07T18:16:37.479Z,9.365437
2022-09-07T18:17:37.431Z,9.366008
2022-09-07T18:18:37.387Z,9.365972
2022-09-07T18:19:38.430Z,9.365934
2022-09-07T18:20:37.431Z,9.365945
2022-09-07T18:21:37.358Z,9.365971
2022-09-07T18:22:37.428Z,9.365944
2022-09-07T18:23:37.353Z,9.365946
2022-09-07T18:24:37.327Z,9.365878
2022-09-07T18:25:37.307Z,9.365930
2022-09-07T18:26:37.300Z,9.365933
2022-09-07T18:27:37.281Z,9.365989
2022-09-07T18:29:38.271Z,9.365960
2022-09-07T18:30:38.252Z,9.366005
2022-09-07T18:31:37.288Z,9.365951
2022-09-07T18:32:37.211Z,9.365932
2022-09-07T18:33:37.230Z,9.365977
2022-09-07T18:34:37.213Z,9.365977
2022-09-07T18:35:37.182Z,9.366044
2022-09-07T18:36:37.156Z,9.365960
2022-09-07T18:37:37.160Z,9.366009